sensor_id;sensor_type;location;lat;lon;timestamp;pressure;altitude;pressure_sealevel;temperature;humidity
21185;BME280;18176;49.502;11.754;2024-02-14T00:03:50;97399.44;;;7.61;56.07
21185;BME280;18176;49.502;11.754;2024-02-14T00:08:11;97401.47;;;7.65;56.13
21185;BME280;18176;49.502;11.754;2024-02-14T00:12:32;97392.75;;;7.71;56.36
21185;BME280;18176;49.502;11.754;2024-02-14T00:16:53;97392.59;;;7.93;56.22
21185;BME280;18176;49.502;11.754;2024-02-14T00:21:18;97390.16;;;7.98;56.14
21185;BME280;18176;49.502;11.754;2024-02-14T00:25:39;97392.19;;;7.96;56.20
21185;BME280;18176;49.502;11.754;2024-02-14T00:29:59;97391.97;;;8.04;56.11
21185;BME280;18176;49.502;11.754;2024-02-14T00:34:21;97387.72;;;8.03;56.11
21185;BME280;18176;49.502;11.754;2024-02-14T00:38:45;97344.72;;;7.83;55.67
21185;BME280;18176;49.502;11.754;2024-02-14T00:43:06;97395.88;;;8.08;56.04
21185;BME280;18176;49.502;11.754;2024-02-14T00:47:26;97399.72;;;8.12;56.28
21185;BME280;18176;49.502;11.754;2024-02-14T00:51:47;97403.59;;;8.29;55.87
21185;BME280;18176;49.502;11.754;2024-02-14T00:56:10;97409.69;;;8.36;55.67
21185;BME280;18176;49.502;11.754;2024-02-14T01:00:31;97408.44;;;8.19;56.03
21185;BME280;18176;49.502;11.754;2024-02-14T01:04:53;97418.63;;;8.22;55.90
21185;BME280;18176;49.502;11.754;2024-02-14T01:09:14;97367.03;;;7.93;55.91
21185;BME280;18176;49.502;11.754;2024-02-14T01:13:37;97364.94;;;7.69;56.52
21185;BME280;18176;49.502;11.754;2024-02-14T01:17:59;97409.25;;;8.06;57.17
21185;BME280;18176;49.502;11.754;2024-02-14T01:22:20;97402.34;;;8.18;56.79
21185;BME280;18176;49.502;11.754;2024-02-14T01:26:40;97415.53;;;8.25;56.85
21185;BME280;18176;49.502;11.754;2024-02-14T01:31:04;97415.78;;;8.30;56.60
21185;BME280;18176;49.502;11.754;2024-02-14T01:35:25;97408.06;;;8.35;56.74
21185;BME280;18176;49.502;11.754;2024-02-14T01:39:45;97403.59;;;8.35;56.60
21185;BME280;18176;49.502;11.754;2024-02-14T01:44:06;97414.16;;;8.35;56.61
21185;BME280;18176;49.502;11.754;2024-02-14T01:48:30;97404.22;;;8.31;56.69
21185;BME280;18176;49.502;11.754;2024-02-14T01:52:51;97412.34;;;8.49;56.87
21185;BME280;18176;49.502;11.754;2024-02-14T01:57:12;97376.16;;;8.49;56.61
21185;BME280;18176;49.502;11.754;2024-02-14T02:01:33;97388.91;;;8.66;56.49
21185;BME280;18176;49.502;11.754;2024-02-14T02:05:57;97399.06;;;8.75;56.12
21185;BME280;18176;49.502;11.754;2024-02-14T02:10:18;97382.84;;;8.65;56.36
21185;BME280;18176;49.502;11.754;2024-02-14T02:14:38;97387.50;;;8.76;56.18
21185;BME280;18176;49.502;11.754;2024-02-14T02:19:02;97386.69;;;8.69;56.03
21185;BME280;18176;49.502;11.754;2024-02-14T02:23:29;97378.38;;;8.72;55.91
21185;BME280;18176;49.502;11.754;2024-02-14T02:27:49;97385.25;;;8.73;56.19
21185;BME280;18176;49.502;11.754;2024-02-14T02:32:11;97373.88;;;8.79;55.71
21185;BME280;18176;49.502;11.754;2024-02-14T02:36:34;97380.72;;;8.93;55.41
21185;BME280;18176;49.502;11.754;2024-02-14T02:40:58;97374.25;;;8.89;55.13
21185;BME280;18176;49.502;11.754;2024-02-14T02:45:19;97322.75;;;8.54;55.35
21185;BME280;18176;49.502;11.754;2024-02-14T02:49:40;97326.38;;;8.53;55.54
21185;BME280;18176;49.502;11.754;2024-02-14T02:54:02;97366.31;;;8.89;55.94
21185;BME280;18176;49.502;11.754;2024-02-14T02:58:25;97369.38;;;8.93;55.98
21185;BME280;18176;49.502;11.754;2024-02-14T03:02:46;97370.53;;;9.03;55.99
21185;BME280;18176;49.502;11.754;2024-02-14T03:07:07;97357.72;;;9.07;55.93
21185;BME280;18176;49.502;11.754;2024-02-14T03:11:28;97375.75;;;9.16;55.88
21185;BME280;18176;49.502;11.754;2024-02-14T03:15:51;97359.09;;;9.16;55.98
21185;BME280;18176;49.502;11.754;2024-02-14T03:20:16;97367.59;;;9.25;56.08
21185;BME280;18176;49.502;11.754;2024-02-14T03:24:38;97362.69;;;9.28;56.02
21185;BME280;18176;49.502;11.754;2024-02-14T03:29:04;97363.91;;;9.26;55.91
21185;BME280;18176;49.502;11.754;2024-02-14T03:33:28;97353.84;;;9.03;55.69
21185;BME280;18176;49.502;11.754;2024-02-14T03:37:49;97343.78;;;8.80;56.45
21185;BME280;18176;49.502;11.754;2024-02-14T03:42:10;97362.56;;;8.46;57.81
21185;BME280;18176;49.502;11.754;2024-02-14T03:46:33;97357.63;;;8.69;57.07
21185;BME280;18176;49.502;11.754;2024-02-14T03:50:58;97357.28;;;8.46;57.54
21185;BME280;18176;49.502;11.754;2024-02-14T03:55:19;97364.53;;;8.64;57.12
21185;BME280;18176;49.502;11.754;2024-02-14T03:59:41;97358.28;;;8.45;57.47
21185;BME280;18176;49.502;11.754;2024-02-14T04:04:02;97364.19;;;8.47;57.42
21185;BME280;18176;49.502;11.754;2024-02-14T04:08:26;97308.75;;;8.14;57.42
21185;BME280;18176;49.502;11.754;2024-02-14T04:12:47;97369.47;;;8.47;57.82
21185;BME280;18176;49.502;11.754;2024-02-14T04:17:08;97373.53;;;8.56;57.68
21185;BME280;18176;49.502;11.754;2024-02-14T04:21:31;97381.25;;;8.51;57.71
21185;BME280;18176;49.502;11.754;2024-02-14T04:25:54;97372.72;;;8.36;57.93
21185;BME280;18176;49.502;11.754;2024-02-14T04:30:15;97363.38;;;8.27;57.80
21185;BME280;18176;49.502;11.754;2024-02-14T04:34:36;97381.22;;;8.25;57.78
21185;BME280;18176;49.502;11.754;2024-02-14T04:38:57;97366.63;;;8.03;57.49
21185;BME280;18176;49.502;11.754;2024-02-14T04:43:21;97327.41;;;7.67;57.56
21185;BME280;18176;49.502;11.754;2024-02-14T04:47:41;97375.53;;;7.75;57.43
21185;BME280;18176;49.502;11.754;2024-02-14T04:52:03;97379.34;;;7.53;57.64
21185;BME280;18176;49.502;11.754;2024-02-14T04:56:25;97302.75;;;7.01;58.35
21185;BME280;18176;49.502;11.754;2024-02-14T05:00:49;97355.19;;;7.43;58.62
21185;BME280;18176;49.502;11.754;2024-02-14T05:05:10;97363.09;;;7.43;60.19
21185;BME280;18176;49.502;11.754;2024-02-14T05:09:31;97352.56;;;7.50;59.37
21185;BME280;18176;49.502;11.754;2024-02-14T05:13:51;97319.66;;;7.20;59.16
21185;BME280;18176;49.502;11.754;2024-02-14T05:18:15;97338.31;;;7.31;58.75
21185;BME280;18176;49.502;11.754;2024-02-14T05:22:36;97365.31;;;7.46;58.86
21185;BME280;18176;49.502;11.754;2024-02-14T05:26:58;97372.47;;;7.65;59.04
21185;BME280;18176;49.502;11.754;2024-02-14T05:31:18;97367.63;;;7.89;59.04
21185;BME280;18176;49.502;11.754;2024-02-14T05:35:42;97375.53;;;8.02;59.13
21185;BME280;18176;49.502;11.754;2024-02-14T05:40:07;97376.97;;;8.04;59.35
21185;BME280;18176;49.502;11.754;2024-02-14T05:44:27;97366.00;;;8.14;59.31
21185;BME280;18176;49.502;11.754;2024-02-14T05:48:48;97391.41;;;8.28;59.38
21185;BME280;18176;49.502;11.754;2024-02-14T05:53:13;97392.63;;;8.32;59.62
21185;BME280;18176;49.502;11.754;2024-02-14T05:57:34;97389.19;;;8.44;59.13
21185;BME280;18176;49.502;11.754;2024-02-14T06:01:55;97400.56;;;8.52;59.26
21185;BME280;18176;49.502;11.754;2024-02-14T06:06:16;97395.00;;;8.79;58.67
21185;BME280;18176;49.502;11.754;2024-02-14T06:10:39;97358.25;;;8.65;58.47
21185;BME280;18176;49.502;11.754;2024-02-14T06:15:01;97401.84;;;9.06;58.27
21185;BME280;18176;49.502;11.754;2024-02-14T06:19:22;97414.88;;;9.01;58.59
21185;BME280;18176;49.502;11.754;2024-02-14T06:23:43;97411.03;;;8.97;58.87
21185;BME280;18176;49.502;11.754;2024-02-14T06:28:07;97421.78;;;8.96;59.03
21185;BME280;18176;49.502;11.754;2024-02-14T06:32:28;97423.41;;;8.97;58.92
21185;BME280;18176;49.502;11.754;2024-02-14T06:36:49;97425.19;;;9.23;58.90
21185;BME280;18176;49.502;11.754;2024-02-14T06:41:10;97419.09;;;9.15;58.61
21185;BME280;18176;49.502;11.754;2024-02-14T06:45:33;97423.97;;;9.18;59.32
21185;BME280;18176;49.502;11.754;2024-02-14T06:49:53;97418.88;;;9.17;59.48
21185;BME280;18176;49.502;11.754;2024-02-14T06:54:14;97410.13;;;9.16;59.42
21185;BME280;18176;49.502;11.754;2024-02-14T06:58:37;97417.84;;;9.25;59.19
21185;BME280;18176;49.502;11.754;2024-02-14T07:03:00;97419.22;;;9.34;59.24
21185;BME280;18176;49.502;11.754;2024-02-14T07:07:21;97378.41;;;9.23;58.72
21185;BME280;18176;49.502;11.754;2024-02-14T07:11:43;97376.13;;;9.27;58.77
21185;BME280;18176;49.502;11.754;2024-02-14T07:16:05;97433.28;;;9.72;58.42
21185;BME280;18176;49.502;11.754;2024-02-14T07:20:31;97421.34;;;9.94;57.88
21185;BME280;18176;49.502;11.754;2024-02-14T07:24:51;97434.00;;;9.92;57.71
21185;BME280;18176;49.502;11.754;2024-02-14T07:29:13;97438.50;;;9.85;57.86
21185;BME280;18176;49.502;11.754;2024-02-14T07:33:33;97447.53;;;9.71;58.24
21185;BME280;18176;49.502;11.754;2024-02-14T07:37:57;97447.22;;;9.54;58.88
21185;BME280;18176;49.502;11.754;2024-02-14T07:42:18;97407.72;;;9.59;58.39
21185;BME280;18176;49.502;11.754;2024-02-14T07:46:39;97440.00;;;10.06;57.76
21185;BME280;18176;49.502;11.754;2024-02-14T07:50:59;97435.84;;;10.23;57.47
21185;BME280;18176;49.502;11.754;2024-02-14T07:55:23;97423.00;;;10.26;57.36
21185;BME280;18176;49.502;11.754;2024-02-14T07:59:43;97361.97;;;9.83;57.53
21185;BME280;18176;49.502;11.754;2024-02-14T08:04:04;97369.75;;;10.52;57.56
21185;BME280;18176;49.502;11.754;2024-02-14T08:08:25;97400.44;;;11.03;56.07
21185;BME280;18176;49.502;11.754;2024-02-14T08:12:49;97406.78;;;11.20;55.41
21185;BME280;18176;49.502;11.754;2024-02-14T08:17:09;97427.41;;;11.36;55.17
21185;BME280;18176;49.502;11.754;2024-02-14T08:21:30;97423.72;;;11.37;55.65
21185;BME280;18176;49.502;11.754;2024-02-14T08:25:51;97421.16;;;11.49;55.06
21185;BME280;18176;49.502;11.754;2024-02-14T08:30:15;97434.47;;;11.24;55.05
21185;BME280;18176;49.502;11.754;2024-02-14T08:34:37;97425.72;;;11.42;55.02
21185;BME280;18176;49.502;11.754;2024-02-14T08:38:58;97426.81;;;12.12;54.15
21185;BME280;18176;49.502;11.754;2024-02-14T08:43:19;97432.06;;;11.88;53.66
21185;BME280;18176;49.502;11.754;2024-02-14T08:47:43;97429.81;;;11.74;53.76
21185;BME280;18176;49.502;11.754;2024-02-14T08:52:05;97442.31;;;12.15;53.19
21185;BME280;18176;49.502;11.754;2024-02-14T08:56:26;97400.97;;;11.59;53.94
21185;BME280;18176;49.502;11.754;2024-02-14T09:00:50;97429.97;;;11.90;54.01
21185;BME280;18176;49.502;11.754;2024-02-14T09:05:28;97432.41;;;12.22;53.59
21185;BME280;18176;49.502;11.754;2024-02-14T09:09:50;97405.63;;;13.04;51.75
21185;BME280;18176;49.502;11.754;2024-02-14T09:14:11;97389.91;;;13.54;50.14
21185;BME280;18176;49.502;11.754;2024-02-14T09:18:32;97439.13;;;14.08;49.66
21185;BME280;18176;49.502;11.754;2024-02-14T09:22:55;97447.31;;;14.18;49.31
21185;BME280;18176;49.502;11.754;2024-02-14T09:27:16;97448.16;;;14.07;49.85
21185;BME280;18176;49.502;11.754;2024-02-14T09:31:38;97449.84;;;14.41;48.94
21185;BME280;18176;49.502;11.754;2024-02-14T09:35:59;97419.16;;;13.94;49.82
21185;BME280;18176;49.502;11.754;2024-02-14T09:40:22;97404.19;;;13.36;50.92
21185;BME280;18176;49.502;11.754;2024-02-14T09:44:45;97439.78;;;13.19;52.43
21185;BME280;18176;49.502;11.754;2024-02-14T09:49:06;97401.91;;;13.28;52.21
21185;BME280;18176;49.502;11.754;2024-02-14T09:53:29;97456.28;;;13.72;52.20
21185;BME280;18176;49.502;11.754;2024-02-14T09:57:54;97460.88;;;13.60;52.79
21185;BME280;18176;49.502;11.754;2024-02-14T10:02:16;97449.22;;;13.78;52.96
21185;BME280;18176;49.502;11.754;2024-02-14T10:06:37;97445.22;;;13.92;53.36
21185;BME280;18176;49.502;11.754;2024-02-14T10:10:58;97376.63;;;13.43;53.90
21185;BME280;18176;49.502;11.754;2024-02-14T10:15:24;97445.44;;;14.02;53.27
21185;BME280;18176;49.502;11.754;2024-02-14T10:19:56;97424.44;;;14.50;52.61
21185;BME280;18176;49.502;11.754;2024-02-14T10:24:18;97402.53;;;14.32;52.28
21185;BME280;18176;49.502;11.754;2024-02-14T10:28:41;97451.00;;;14.78;51.63
21185;BME280;18176;49.502;11.754;2024-02-14T10:33:09;97449.72;;;14.98;51.30
21185;BME280;18176;49.502;11.754;2024-02-14T10:37:42;97436.31;;;14.59;52.03
21185;BME280;18176;49.502;11.754;2024-02-14T10:42:03;97449.03;;;14.24;53.33
21185;BME280;18176;49.502;11.754;2024-02-14T10:46:26;97451.78;;;14.01;53.88
21185;BME280;18176;49.502;11.754;2024-02-14T10:50:54;97397.94;;;13.71;54.67
21185;BME280;18176;49.502;11.754;2024-02-14T10:55:17;97446.56;;;14.06;54.48
21185;BME280;18176;49.502;11.754;2024-02-14T10:59:43;97435.91;;;14.06;55.04
21185;BME280;18176;49.502;11.754;2024-02-14T11:04:04;97418.69;;;14.58;54.17
21185;BME280;18176;49.502;11.754;2024-02-14T11:08:29;97404.22;;;14.54;53.98
21185;BME280;18176;49.502;11.754;2024-02-14T11:12:50;97418.88;;;14.68;53.52
21185;BME280;18176;49.502;11.754;2024-02-14T11:17:13;97422.19;;;15.14;52.61
21185;BME280;18176;49.502;11.754;2024-02-14T11:21:36;97393.69;;;15.41;52.44
21185;BME280;18176;49.502;11.754;2024-02-14T11:26:04;97410.16;;;15.76;51.60
21185;BME280;18176;49.502;11.754;2024-02-14T11:30:30;97401.19;;;16.14;50.48
21185;BME280;18176;49.502;11.754;2024-02-14T11:34:54;97409.47;;;16.44;49.70
21185;BME280;18176;49.502;11.754;2024-02-14T11:39:17;97406.91;;;16.54;48.77
21185;BME280;18176;49.502;11.754;2024-02-14T11:43:51;97327.06;;;16.04;48.80
21185;BME280;18176;49.502;11.754;2024-02-14T11:48:13;97402.66;;;16.95;48.54
21185;BME280;18176;49.502;11.754;2024-02-14T11:52:34;97361.56;;;15.79;49.07
21185;BME280;18176;49.502;11.754;2024-02-14T11:56:55;97406.72;;;16.07;49.36
21185;BME280;18176;49.502;11.754;2024-02-14T12:01:22;97396.34;;;16.11;48.79
21185;BME280;18176;49.502;11.754;2024-02-14T12:05:49;97414.53;;;16.09;48.92
21185;BME280;18176;49.502;11.754;2024-02-14T12:10:10;97394.50;;;16.43;48.33
21185;BME280;18176;49.502;11.754;2024-02-14T12:14:32;97336.72;;;16.10;47.83
21185;BME280;18176;49.502;11.754;2024-02-14T12:19:04;97394.13;;;16.30;48.55
21185;BME280;18176;49.502;11.754;2024-02-14T12:23:29;97395.94;;;16.56;47.44
21185;BME280;18176;49.502;11.754;2024-02-14T12:27:56;97392.59;;;16.39;48.16
21185;BME280;18176;49.502;11.754;2024-02-14T12:32:17;97394.94;;;17.04;46.85
21185;BME280;18176;49.502;11.754;2024-02-14T12:36:41;97396.91;;;17.18;46.45
21185;BME280;18176;49.502;11.754;2024-02-14T12:41:02;97397.69;;;17.19;46.67
21185;BME280;18176;49.502;11.754;2024-02-14T12:45:23;97349.06;;;16.48;47.70
21185;BME280;18176;49.502;11.754;2024-02-14T12:49:45;97376.53;;;16.70;48.37
21185;BME280;18176;49.502;11.754;2024-02-14T12:54:08;97358.81;;;16.28;49.07
21185;BME280;18176;49.502;11.754;2024-02-14T12:58:31;97392.09;;;16.73;48.79
21185;BME280;18176;49.502;11.754;2024-02-14T13:02:54;97384.59;;;17.22;47.96
21185;BME280;18176;49.502;11.754;2024-02-14T13:07:14;97383.53;;;16.76;48.25
21185;BME280;18176;49.502;11.754;2024-02-14T13:11:38;97380.63;;;16.83;48.53
21185;BME280;18176;49.502;11.754;2024-02-14T13:15:59;97386.19;;;17.18;48.34
21185;BME280;18176;49.502;11.754;2024-02-14T13:20:20;97386.16;;;17.65;47.24
21185;BME280;18176;49.502;11.754;2024-02-14T13:24:41;97385.94;;;17.82;46.13
21185;BME280;18176;49.502;11.754;2024-02-14T13:29:04;97379.19;;;17.74;46.51
21185;BME280;18176;49.502;11.754;2024-02-14T13:33:25;97381.84;;;17.69;46.47
21185;BME280;18176;49.502;11.754;2024-02-14T13:37:46;97384.38;;;18.21;45.62
21185;BME280;18176;49.502;11.754;2024-02-14T13:42:07;97373.09;;;18.44;45.40
21185;BME280;18176;49.502;11.754;2024-02-14T13:46:30;97378.25;;;18.51;44.97
21185;BME280;18176;49.502;11.754;2024-02-14T13:50:52;97380.94;;;18.46;45.24
21185;BME280;18176;49.502;11.754;2024-02-14T13:55:12;97368.56;;;18.35;45.42
21185;BME280;18176;49.502;11.754;2024-02-14T13:59:33;97382.78;;;18.30;45.55
21185;BME280;18176;49.502;11.754;2024-02-14T14:03:57;97382.44;;;17.91;46.85
21185;BME280;18176;49.502;11.754;2024-02-14T14:08:17;97388.09;;;18.10;47.15
21185;BME280;18176;49.502;11.754;2024-02-14T14:12:38;97389.75;;;18.21;47.22
21185;BME280;18176;49.502;11.754;2024-02-14T14:16:59;97389.44;;;18.07;48.13
21185;BME280;18176;49.502;11.754;2024-02-14T14:21:22;97390.50;;;18.01;47.91
21185;BME280;18176;49.502;11.754;2024-02-14T14:25:43;97383.88;;;18.54;47.48
21185;BME280;18176;49.502;11.754;2024-02-14T14:30:05;97332.34;;;18.32;46.61
21185;BME280;18176;49.502;11.754;2024-02-14T14:34:26;97383.59;;;18.41;46.84
21185;BME280;18176;49.502;11.754;2024-02-14T14:38:50;97387.59;;;18.43;47.49
21185;BME280;18176;49.502;11.754;2024-02-14T14:43:12;97387.31;;;17.99;48.88
21185;BME280;18176;49.502;11.754;2024-02-14T14:47:33;97390.03;;;17.37;50.55
21185;BME280;18176;49.502;11.754;2024-02-14T14:51:55;97363.06;;;17.54;49.45
21185;BME280;18176;49.502;11.754;2024-02-14T14:56:18;97395.91;;;18.21;48.66
21185;BME280;18176;49.502;11.754;2024-02-14T15:00:43;97344.94;;;18.06;48.02
21185;BME280;18176;49.502;11.754;2024-02-14T15:05:05;97390.06;;;18.60;47.46
21185;BME280;18176;49.502;11.754;2024-02-14T15:09:25;97376.63;;;18.50;47.91
21185;BME280;18176;49.502;11.754;2024-02-14T15:13:51;97388.66;;;18.17;48.61
21185;BME280;18176;49.502;11.754;2024-02-14T15:18:12;97377.88;;;17.87;49.41
21185;BME280;18176;49.502;11.754;2024-02-14T15:22:33;97390.50;;;17.24;51.96
21185;BME280;18176;49.502;11.754;2024-02-14T15:26:53;97392.53;;;17.02;52.69
21185;BME280;18176;49.502;11.754;2024-02-14T15:31:21;97386.47;;;17.84;50.85
21185;BME280;18176;49.502;11.754;2024-02-14T15:35:56;97400.88;;;17.63;51.05
21185;BME280;18176;49.502;11.754;2024-02-14T15:40:18;97383.22;;;17.77;50.99
21185;BME280;18176;49.502;11.754;2024-02-14T15:44:41;97391.78;;;17.69;50.88
21185;BME280;18176;49.502;11.754;2024-02-14T15:49:04;97359.03;;;17.51;51.21
21185;BME280;18176;49.502;11.754;2024-02-14T15:53:29;97388.03;;;17.80;50.96
21185;BME280;18176;49.502;11.754;2024-02-14T15:57:51;97389.41;;;17.77;51.01
21185;BME280;18176;49.502;11.754;2024-02-14T16:02:12;97396.09;;;17.85;50.93
21185;BME280;18176;49.502;11.754;2024-02-14T16:06:35;97354.53;;;17.72;50.59
21185;BME280;18176;49.502;11.754;2024-02-14T16:10:56;97410.25;;;17.65;51.19
21185;BME280;18176;49.502;11.754;2024-02-14T16:15:17;97418.31;;;17.75;51.42
21185;BME280;18176;49.502;11.754;2024-02-14T16:19:38;97405.16;;;17.64;51.67
21185;BME280;18176;49.502;11.754;2024-02-14T16:24:01;97395.47;;;17.52;51.58
21185;BME280;18176;49.502;11.754;2024-02-14T16:28:22;97409.94;;;17.51;51.83
21185;BME280;18176;49.502;11.754;2024-02-14T16:32:43;97412.03;;;17.44;52.13
21185;BME280;18176;49.502;11.754;2024-02-14T16:37:05;97398.69;;;17.54;51.52
21185;BME280;18176;49.502;11.754;2024-02-14T16:41:29;97405.13;;;17.53;52.00
21185;BME280;18176;49.502;11.754;2024-02-14T16:45:50;97406.63;;;17.34;52.20
21185;BME280;18176;49.502;11.754;2024-02-14T16:50:11;97324.88;;;16.70;51.48
21185;BME280;18176;49.502;11.754;2024-02-14T16:54:32;97367.22;;;16.83;50.80
21185;BME280;18176;49.502;11.754;2024-02-14T16:58:55;97409.66;;;17.06;50.68
21185;BME280;18176;49.502;11.754;2024-02-14T17:03:16;97427.34;;;17.07;50.80
21185;BME280;18176;49.502;11.754;2024-02-14T17:07:41;97429.97;;;16.92;50.93
21185;BME280;18176;49.502;11.754;2024-02-14T17:12:04;97432.00;;;16.80;50.60
21185;BME280;18176;49.502;11.754;2024-02-14T17:16:29;97437.72;;;16.57;51.06
21185;BME280;18176;49.502;11.754;2024-02-14T17:20:49;97439.03;;;16.54;50.59
21185;BME280;18176;49.502;11.754;2024-02-14T17:25:10;97446.59;;;16.36;51.29
21185;BME280;18176;49.502;11.754;2024-02-14T17:29:31;97395.41;;;15.95;51.89
21185;BME280;18176;49.502;11.754;2024-02-14T17:33:54;97432.75;;;16.17;51.05
21185;BME280;18176;49.502;11.754;2024-02-14T17:38:15;97446.03;;;16.60;50.82
21185;BME280;18176;49.502;11.754;2024-02-14T17:42:36;97449.66;;;16.76;50.25
21185;BME280;18176;49.502;11.754;2024-02-14T17:46:57;97421.38;;;16.27;51.09
21185;BME280;18176;49.502;11.754;2024-02-14T17:51:20;97450.31;;;16.35;51.03
21185;BME280;18176;49.502;11.754;2024-02-14T17:55:41;97408.97;;;16.15;51.03
21185;BME280;18176;49.502;11.754;2024-02-14T18:00:03;97396.97;;;16.18;50.73
21185;BME280;18176;49.502;11.754;2024-02-14T18:04:31;97468.19;;;16.56;50.91
21185;BME280;18176;49.502;11.754;2024-02-14T18:08:54;97460.22;;;16.61;50.69
21185;BME280;18176;49.502;11.754;2024-02-14T18:13:16;97459.41;;;16.60;50.69
21185;BME280;18176;49.502;11.754;2024-02-14T18:17:36;97453.81;;;16.67;51.07
21185;BME280;18176;49.502;11.754;2024-02-14T18:21:58;97451.25;;;16.77;50.94
21185;BME280;18176;49.502;11.754;2024-02-14T18:26:21;97453.88;;;16.72;51.53
21185;BME280;18176;49.502;11.754;2024-02-14T18:30:42;97451.13;;;16.62;51.66
21185;BME280;18176;49.502;11.754;2024-02-14T18:35:04;97404.28;;;16.33;52.54
21185;BME280;18176;49.502;11.754;2024-02-14T18:39:25;97435.88;;;16.36;53.23
21185;BME280;18176;49.502;11.754;2024-02-14T18:43:48;97434.91;;;16.47;52.85
21185;BME280;18176;49.502;11.754;2024-02-14T18:48:09;97443.34;;;16.34;53.38
21185;BME280;18176;49.502;11.754;2024-02-14T18:52:31;97435.78;;;16.26;52.99
21185;BME280;18176;49.502;11.754;2024-02-14T18:56:52;97401.38;;;16.07;52.79
21185;BME280;18176;49.502;11.754;2024-02-14T19:01:23;97430.34;;;16.15;53.07
21185;BME280;18176;49.502;11.754;2024-02-14T19:05:46;97455.81;;;16.23;53.39
21185;BME280;18176;49.502;11.754;2024-02-14T19:10:08;97409.88;;;15.99;53.17
21185;BME280;18176;49.502;11.754;2024-02-14T19:14:29;97446.59;;;16.36;53.25
21185;BME280;18176;49.502;11.754;2024-02-14T19:18:54;97444.41;;;16.33;53.33
21185;BME280;18176;49.502;11.754;2024-02-14T19:23:15;97442.16;;;16.20;53.81
21185;BME280;18176;49.502;11.754;2024-02-14T19:27:36;97443.78;;;16.21;54.18
21185;BME280;18176;49.502;11.754;2024-02-14T19:31:57;97435.09;;;16.08;54.94
21185;BME280;18176;49.502;11.754;2024-02-14T19:36:20;97419.75;;;15.99;55.35
21185;BME280;18176;49.502;11.754;2024-02-14T19:40:41;97443.53;;;16.00;55.69
21185;BME280;18176;49.502;11.754;2024-02-14T19:45:03;97434.13;;;15.93;55.92
21185;BME280;18176;49.502;11.754;2024-02-14T19:49:24;97438.91;;;15.91;55.97
21185;BME280;18176;49.502;11.754;2024-02-14T19:53:48;97434.56;;;15.85;56.06
21185;BME280;18176;49.502;11.754;2024-02-14T19:58:08;97431.63;;;15.86;55.78
21185;BME280;18176;49.502;11.754;2024-02-14T20:02:29;97434.31;;;15.86;56.02
21185;BME280;18176;49.502;11.754;2024-02-14T20:06:50;97437.50;;;15.83;56.12
21185;BME280;18176;49.502;11.754;2024-02-14T20:11:16;97438.00;;;15.80;55.88
21185;BME280;18176;49.502;11.754;2024-02-14T20:15:37;97436.88;;;15.76;56.21
21185;BME280;18176;49.502;11.754;2024-02-14T20:19:57;97442.09;;;15.66;56.37
21185;BME280;18176;49.502;11.754;2024-02-14T20:24:19;97439.19;;;15.68;56.24
21185;BME280;18176;49.502;11.754;2024-02-14T20:28:45;97429.06;;;15.48;57.02
21185;BME280;18176;49.502;11.754;2024-02-14T20:33:06;97401.88;;;15.13;57.17
21185;BME280;18176;49.502;11.754;2024-02-14T20:37:27;97440.72;;;15.42;57.43
21185;BME280;18176;49.502;11.754;2024-02-14T20:41:47;97455.75;;;15.48;57.50
21185;BME280;18176;49.502;11.754;2024-02-14T20:46:11;97431.19;;;15.29;57.76
21185;BME280;18176;49.502;11.754;2024-02-14T20:50:33;97427.16;;;15.27;58.05
21185;BME280;18176;49.502;11.754;2024-02-14T20:54:54;97396.81;;;14.95;58.04
21185;BME280;18176;49.502;11.754;2024-02-14T20:59:17;97438.97;;;15.31;57.97
21185;BME280;18176;49.502;11.754;2024-02-14T21:03:40;97386.69;;;14.97;58.40
21185;BME280;18176;49.502;11.754;2024-02-14T21:08:01;97433.50;;;15.21;58.48
21185;BME280;18176;49.502;11.754;2024-02-14T21:12:22;97428.63;;;15.18;58.84
21185;BME280;18176;49.502;11.754;2024-02-14T21:16:43;97365.34;;;14.75;59.03
21185;BME280;18176;49.502;11.754;2024-02-14T21:21:06;97436.09;;;15.16;59.29
21185;BME280;18176;49.502;11.754;2024-02-14T21:25:27;97428.00;;;15.11;59.38
21185;BME280;18176;49.502;11.754;2024-02-14T21:29:48;97424.66;;;15.20;58.74
21185;BME280;18176;49.502;11.754;2024-02-14T21:34:09;97423.09;;;15.24;58.65
21185;BME280;18176;49.502;11.754;2024-02-14T21:38:33;97415.44;;;15.28;58.64
21185;BME280;18176;49.502;11.754;2024-02-14T21:42:53;97415.66;;;15.26;58.30
21185;BME280;18176;49.502;11.754;2024-02-14T21:47:15;97396.66;;;15.23;58.31
21185;BME280;18176;49.502;11.754;2024-02-14T21:51:36;97398.34;;;15.29;58.29
21185;BME280;18176;49.502;11.754;2024-02-14T21:56:00;97412.09;;;15.37;58.59
21185;BME280;18176;49.502;11.754;2024-02-14T22:00:21;97417.72;;;15.41;58.66
21185;BME280;18176;49.502;11.754;2024-02-14T22:04:42;97402.34;;;15.48;58.11
21185;BME280;18176;49.502;11.754;2024-02-14T22:09:03;97412.16;;;15.64;57.77
21185;BME280;18176;49.502;11.754;2024-02-14T22:13:28;97401.97;;;15.61;57.63
21185;BME280;18176;49.502;11.754;2024-02-14T22:17:52;97407.13;;;15.68;57.38
21185;BME280;18176;49.502;11.754;2024-02-14T22:22:14;97410.56;;;15.63;57.64
21185;BME280;18176;49.502;11.754;2024-02-14T22:26:36;97404.63;;;15.61;57.91
21185;BME280;18176;49.502;11.754;2024-02-14T22:31:00;97405.50;;;15.67;57.61
21185;BME280;18176;49.502;11.754;2024-02-14T22:35:22;97416.19;;;15.67;57.84
21185;BME280;18176;49.502;11.754;2024-02-14T22:39:42;97405.31;;;15.73;57.17
21185;BME280;18176;49.502;11.754;2024-02-14T22:44:04;97411.75;;;15.77;57.21
21185;BME280;18176;49.502;11.754;2024-02-14T22:48:28;97428.88;;;15.76;57.13
21185;BME280;18176;49.502;11.754;2024-02-14T22:52:49;97424.81;;;15.52;58.04
21185;BME280;18176;49.502;11.754;2024-02-14T22:57:10;97418.38;;;15.48;58.12